ADDS METAR Data INFO
IDs: Format: Raw Decoded Include TAF

Data at: 1018 UTC 12 Dec 2017

KCHA 120953Z AUTO 02003KT 10SM CLR 08/M01 A2988 RMK AO2 SLP115 T00781011 $
KCHA 120853Z AUTO 00000KT 10SM CLR 04/00 A2987 RMK AO2 SLP116 T00390000 56004 $
KCHA 120753Z AUTO 00000KT 10SM CLR 05/00 A2987 RMK AO2 SLP115 T00500000 $
KCHA 120653Z AUTO 23006KT 10SM CLR 08/00 A2987 RMK AO2 SLP115 T00780000 $
KCHA 120553Z AUTO 21010KT 10SM CLR 06/01 A2989 RMK AO2 SLP120 T00560006 10111 20028 58018 $
KCHA 120453Z 00000KT 10SM CLR 03/00 A2991 RMK AO2 SLP130 LAST T00330000 401501022 $
KCHA 120353Z 00000KT 10SM CLR 03/00 A2994 RMK AO2 SLP139 T00330000 $
KCHA 120253Z 00000KT 10SM CLR 05/00 A2994 RMK AO2 SLP140 T00500000 58005 $
KCHA 120153Z 19005KT 10SM CLR 08/01 A2994 RMK AO2 SLP140 T00830006 $
KCHA 120053Z COR 15003KT 10SM CLR 10/01 A2996 RMK AO2 SLP146 T01000006 $
KCHA 112353Z 17009KT 10SM FEW150 11/01 A2995 RMK AO2 SLP145 T01110006 10150 20111 56011 $
KCHA 112253Z 18007KT 10SM FEW150 12/00 A2997 RMK AO2 SLP148 T01220000 $
KCHA 112153Z 17009KT 10SM CLR 14/00 A2997 RMK AO2 SLP150 T01390000 $
KCHA 112053Z 17007KT 10SM CLR 15/M01 A2999 RMK AO2 SLP154 T01501006 56031 $
KCHA 111953Z 20006KT 10SM CLR 14/M01 A3002 RMK AO2 SLP165 T01441011 $
KCHA 111853Z VRB03KT 10SM CLR 13/M01 A3004 RMK AO2 SLP174 T01331011 $
KCHA 111753Z 21007KT 10SM CLR 12/M01 A3008 RMK AO2 SLP188 T01171011 10117 21022 58033 $
KCHA 111653Z 21005KT 10SM CLR 09/M02 A3013 RMK AO2 PRESFR SLP207 T00941017 $
KCHA 111553Z 00000KT 10SM CLR 06/M02 A3017 RMK AO2 SLP217 T00611017 $
KCHA 111453Z 00000KT 10SM CLR 03/M02 A3018 RMK AO2 SLP224 T00331022 55001 $
KCHA 111353Z 00000KT 10SM CLR 00/M02 A3018 RMK AO2 SLP223 T00001022 $
KCHA 111253Z 00000KT 10SM CLR M02/M04 A3019 RMK AO2 SLP226 T10171039 $
KCHA 111153Z 00000KT 10SM CLR M02/M04 A3019 RMK AO2 SLP225 T10171039 10006 21022 55000 $
KCHA 111053Z 00000KT 10SM CLR M01/M04 A3018 RMK AO2 SLP224 T10111039 $
KCHA 110953Z AUTO 00000KT 10SM CLR M02/M03 A3018 RMK AO2 SLP223 T10171033 $
KCHA 110853Z AUTO 00000KT 10SM CLR M01/M04 A3019 RMK AO2 SLP225 T10111039 56012 $
KCHA 110753Z AUTO 00000KT 10SM CLR M01/M04 A3019 RMK AO2 SLP226 T10061039 $
KCHA 110653Z AUTO 00000KT 10SM CLR 00/M04 A3020 RMK AO2 SLP231 T00001039 $
KCHA 110553Z AUTO 00000KT 10SM CLR 00/M03 A3022 RMK AO2 SLP238 T00001033 10050 21006 58002 $
KCHA 110453Z 00000KT 10SM CLR 00/M03 A3024 RMK AO2 SLP242 LAST T00001033 400831039 $
KCHA 110353Z 17003KT 10SM CLR 03/M05 A3024 RMK AO2 SLP242 T00281050 $
KCHA 110253Z 14004KT 10SM CLR 03/M06 A3023 RMK AO2 SLP240 T00331056 53018 $
KCHA 110153Z 16003KT 10SM CLR 03/M05 A3020 RMK AO2 SLP233 T00281050 $
KCHA 110053Z 19003KT 10SM CLR 03/M06 A3019 RMK AO2 SLP228 T00331056 $
KCHA 102353Z 00000KT 10SM FEW060 05/M07 A3018 RMK AO2 SLP222 T00501067 10083 20050 58006 $
KCHA 102253Z 21007KT 10SM FEW060 05/M07 A3019 RMK AO2 SLP226 T00501067 $